Time;durP1;ratioP1;P1;durP2;ratioP2;P2;SDS_P1;SDS_P2;PMS_P1;PMS_P2;Temp;Humidity;BMP_temperature;BMP_pressure;BME280_temperature;BME280_humidity;BME280_pressure;Samples;Min_cycle;Max_cycle;Signal;HPM_P1;HPM_P2
2021/05/11 00:00:56;;;;;;;3.95;2.65;;;;;;;10.01;59.10;100579.78;5048640;28;20452;-22
2021/05/11 00:03:21;;;;;;;4.35;2.85;;;;;;;9.89;59.29;100565.41;5048612;28;20032;-22
2021/05/11 00:05:46;;;;;;;5.03;3.10;;;;;;;9.81;59.88;100585.03;5048469;28;20072;-22
2021/05/11 00:08:12;;;;;;;5.32;2.90;;;;;;;9.64;60.34;100584.59;5048326;28;20029;-21
2021/05/11 00:10:37;;;;;;;6.20;3.35;;;;;;;9.54;60.59;100578.81;5048788;28;20072;-21
2021/05/11 00:13:03;;;;;;;5.10;3.58;;;;;;;9.65;60.53;100569.44;5048764;28;20029;-22
2021/05/11 00:15:28;;;;;;;7.35;3.83;;;;;;;9.53;60.78;100561.19;5048449;28;20098;-23
2021/05/11 00:17:54;;;;;;;6.13;3.58;;;;;;;9.51;60.86;100581.88;5048272;28;20701;-22
2021/05/11 00:20:19;;;;;;;8.05;3.50;;;;;;;9.30;61.17;100555.38;5047981;28;20044;-22
2021/05/11 00:22:46;;;;;;;8.65;3.55;;;;;;;9.37;61.08;100537.59;5048103;28;20082;-22
2021/05/11 00:25:12;;;;;;;5.03;3.28;;;;;;;9.34;61.91;100552.13;5047938;28;20039;-22
2021/05/11 00:27:37;;;;;;;6.07;3.63;;;;;;;9.68;60.85;100565.53;5048133;28;20024;-22
2021/05/11 00:30:03;;;;;;;7.60;4.22;;;;;;;9.92;59.70;100549.00;5047852;28;20037;-21
2021/05/11 00:32:29;;;;;;;6.65;4.15;;;;;;;10.12;59.01;100564.19;5048027;28;20017;-22
2021/05/11 00:34:55;;;;;;;11.57;5.15;;;;;;;9.93;59.89;100566.63;5047908;28;20029;-22
2021/05/11 00:37:20;;;;;;;13.02;5.72;;;;;;;9.80;60.13;100563.94;5047715;28;20033;-22
2021/05/11 00:39:46;;;;;;;9.60;5.90;;;;;;;10.18;59.10;100558.06;5046033;28;20052;-22
2021/05/11 00:42:11;;;;;;;9.82;6.57;;;;;;;10.19;58.89;100560.50;5047694;28;20044;-22
2021/05/11 00:44:37;;;;;;;11.15;6.65;;;;;;;10.26;58.74;100561.34;5047820;28;20045;-21
2021/05/11 00:47:04;;;;;;;10.77;5.95;;;;;;;10.23;58.80;100566.25;5047914;28;20041;-21
2021/05/11 00:49:31;;;;;;;11.67;7.27;;;;;;;10.56;57.50;100562.78;5047684;28;20139;-22
2021/05/11 00:51:57;;;;;;;12.10;7.38;;;;;;;10.00;59.04;100537.34;5048019;28;20317;-21
2021/05/11 00:54:22;;;;;;;11.75;7.55;;;;;;;10.49;57.93;100564.66;5047529;28;20063;-21
2021/05/11 00:56:48;;;;;;;12.93;6.47;;;;;;;10.61;57.37;100557.66;5046688;28;20037;-21
2021/05/11 00:59:19;;;;;;;11.73;7.03;;;;;;;10.59;56.95;100549.06;5029943;28;20112;-20
2021/05/11 01:01:45;;;;;;;14.75;7.22;;;;;;;10.58;56.91;100544.72;5047277;28;20045;-21
2021/05/11 01:04:11;;;;;;;10.50;6.97;;;;;;;10.78;56.86;100550.84;5046082;28;20021;-20
2021/05/11 01:06:37;;;;;;;13.70;6.85;;;;;;;10.52;57.10;100559.75;5047380;28;20037;-21
2021/05/11 01:09:03;;;;;;;10.57;6.72;;;;;;;10.44;57.03;100542.09;5046461;28;20032;-21
2021/05/11 01:11:28;;;;;;;18.02;7.30;;;;;;;10.45;57.31;100554.38;5047692;28;20822;-22
2021/05/11 01:13:53;;;;;;;9.60;6.28;;;;;;;10.79;56.74;100549.03;5046181;28;20762;-22
2021/05/11 01:16:19;;;;;;;14.30;6.65;;;;;;;10.92;56.15;100548.16;5045751;28;20033;-22
2021/05/11 01:18:48;;;;;;;11.07;6.70;;;;;;;10.62;57.13;100553.97;5047174;28;20382;-22
2021/05/11 01:31:56;;;;;;;10.83;5.80;;;;;;;9.50;60.60;100537.66;5047120;28;20039;-21
2021/05/11 01:50:35;;;;;;;;;;;;;;;10.27;57.58;100535.50;5047321;28;20750;-21
2021/05/11 02:22:47;;;;;;;7.10;5.18;;;;;;;9.70;59.24;100518.22;5050885;28;20035;-21
2021/05/11 02:25:14;;;;;;;7.50;5.20;;;;;;;9.67;59.72;100526.63;5050491;28;20083;-22
2021/05/11 02:27:39;;;;;;;8.00;5.22;;;;;;;9.07;60.38;100492.63;5050283;28;20040;-22
2021/05/11 02:30:07;;;;;;;7.15;4.60;;;;;;;9.19;60.92;100512.34;5050379;28;20029;-22
2021/05/11 02:32:33;;;;;;;8.73;4.40;;;;;;;9.12;61.12;100519.47;5050164;28;20056;-22
2021/05/11 02:34:58;;;;;;;68.95;11.02;;;;;;;9.29;60.89;100521.78;5050343;28;20493;-22
2021/05/11 02:37:24;;;;;;;7.63;4.63;;;;;;;9.19;61.63;100528.31;5050262;28;20052;-22
2021/05/11 02:39:49;;;;;;;8.73;5.15;;;;;;;9.01;61.33;100504.91;5050152;28;20036;-22
2021/05/11 02:42:15;;;;;;;8.48;4.95;;;;;;;8.76;62.78;100528.47;5048609;28;20037;-21
2021/05/11 02:44:45;;;;;;;6.80;4.57;;;;;;;8.87;62.27;100529.78;5049905;28;20114;-23
2021/05/11 02:47:11;;;;;;;9.25;5.22;;;;;;;8.88;62.48;100541.25;5050029;28;20481;-22
2021/05/11 02:49:40;;;;;;;8.73;5.45;;;;;;;8.88;61.57;100512.00;5049925;28;20063;-21
2021/05/11 02:52:05;;;;;;;11.43;5.35;;;;;;;8.88;61.57;100510.16;5049939;28;20029;-22
2021/05/11 02:54:31;;;;;;;6.80;4.65;;;;;;;8.65;62.34;100518.41;5049833;28;20029;-21
2021/05/11 02:56:56;;;;;;;9.18;5.30;;;;;;;8.68;62.87;100531.28;5049762;28;20036;-22
2021/05/11 02:59:22;;;;;;;7.97;5.38;;;;;;;9.05;61.58;100510.63;5049790;28;20033;-21
2021/05/11 03:01:47;;;;;;;11.98;6.50;;;;;;;9.62;60.04;100533.38;5049925;28;20032;-22
2021/05/11 03:04:12;;;;;;;13.00;6.35;;;;;;;9.54;59.91;100528.25;5049400;28;20040;-21
2021/05/11 03:06:38;;;;;;;10.85;5.70;;;;;;;9.37;59.69;100525.09;5049898;28;20519;-21
2021/05/11 03:09:04;;;;;;;10.18;5.30;;;;;;;8.92;60.53;100526.53;5049784;28;20036;-22
2021/05/11 03:11:30;;;;;;;11.35;5.93;;;;;;;9.11;60.61;100525.78;5049586;28;20481;-21
2021/05/11 03:13:55;;;;;;;18.23;5.40;;;;;;;9.40;58.89;100529.22;5049436;28;20033;-23
2021/05/11 03:16:22;;;;;;;10.75;5.13;;;;;;;9.10;59.64;100540.13;5049491;28;20028;-22
2021/05/11 03:18:47;;;;;;;11.25;5.38;;;;;;;8.69;60.85;100535.63;5049378;28;20025;-22
2021/05/11 03:21:13;;;;;;;8.65;5.30;;;;;;;9.02;60.33;100540.31;5049403;28;20032;-21
2021/05/11 03:23:38;;;;;;;18.60;6.18;;;;;;;8.94;60.07;100540.47;5049322;28;20032;-23
2021/05/11 03:26:04;;;;;;;9.50;5.45;;;;;;;9.04;60.02;100535.59;5049225;28;20029;-22
2021/05/11 03:28:29;;;;;;;11.65;5.88;;;;;;;8.68;61.41;100525.97;5048767;28;20917;-23
2021/05/11 03:30:55;;;;;;;13.98;5.75;;;;;;;9.32;59.40;100537.38;5049197;28;20036;-22
2021/05/11 03:33:20;;;;;;;26.60;7.32;;;;;;;9.62;58.14;100538.72;5049015;28;20037;-22
2021/05/11 03:35:47;;;;;;;15.88;5.97;;;;;;;9.57;58.14;100541.13;5049104;28;20417;-22
2021/05/11 03:38:12;;;;;;;18.30;6.57;;;;;;;9.35;58.02;100527.13;5048103;28;20409;-22
2021/05/11 03:40:38;;;;;;;14.18;6.03;;;;;;;9.25;58.85;100522.22;5049004;28;20470;-20
2021/05/11 03:43:08;;;;;;;9.57;4.60;;;;;;;9.30;58.72;100550.06;5049181;28;20029;-22
2021/05/11 03:45:38;;;;;;;9.90;4.80;;;;;;;9.54;57.91;100540.72;5049421;28;20048;-22
2021/05/11 03:48:03;;;;;;;9.38;4.55;;;;;;;9.67;57.24;100553.25;5049089;28;20123;-22
2021/05/11 03:50:29;;;;;;;7.97;4.10;;;;;;;9.67;56.67;100550.59;5048666;28;20123;-22
2021/05/11 03:52:55;;;;;;;7.90;4.30;;;;;;;9.83;56.07;100550.22;5049077;28;20557;-21
2021/05/11 03:55:20;;;;;;;10.65;4.00;;;;;;;9.15;57.62;100535.03;5048574;28;20037;-22
2021/05/11 03:57:46;;;;;;;9.13;3.40;;;;;;;8.95;59.01;100552.72;5048841;28;20021;-21
2021/05/11 04:00:12;;;;;;;9.10;4.15;;;;;;;9.21;58.38;100541.41;5048601;28;20040;-21
2021/05/11 04:02:37;;;;;;;8.75;4.65;;;;;;;9.57;57.82;100545.66;5048870;28;20078;-21
2021/05/11 04:05:07;;;;;;;6.30;4.00;;;;;;;9.34;57.86;100527.34;5048707;28;20838;-22
2021/05/11 04:07:33;;;;;;;8.13;3.65;;;;;;;9.57;58.21;100546.47;5048653;28;20103;-22
2021/05/11 04:10:01;;;;;;;12.02;4.57;;;;;;;9.20;58.98;100524.63;5048598;28;20122;-21
2021/05/11 04:17:49;;;;;;;10.75;5.78;;;;;;;9.87;57.92;100519.50;5057618;28;20187;-23
2021/05/11 04:20:15;;;;;;;10.90;5.10;;;;;;;10.51;56.67;100542.09;5047970;28;20041;-22
2021/05/11 04:22:40;;;;;;;8.48;4.70;;;;;;;10.42;57.28;100538.81;5048132;28;20044;-22
2021/05/11 04:25:06;;;;;;;12.48;5.70;;;;;;;10.66;57.03;100539.19;5048417;28;20523;-22
2021/05/11 04:27:32;;;;;;;10.65;5.07;;;;;;;10.61;57.71;100544.34;5048135;28;20029;-21
2021/05/11 04:30:00;;;;;;;6.70;4.90;;;;;;;10.65;57.31;100535.69;5048278;28;20055;-22
2021/05/11 04:32:26;;;;;;;7.90;5.25;;;;;;;10.55;57.62;100521.16;5046495;28;20484;-21
2021/05/11 04:34:52;;;;;;;10.02;5.47;;;;;;;9.97;59.90;100525.25;5048376;28;20118;-21
2021/05/11 04:37:17;;;;;;;7.65;5.05;;;;;;;10.36;58.50;100518.31;5048447;28;20040;-21
2021/05/11 04:39:43;;;;;;;7.90;5.22;;;;;;;10.41;58.73;100537.16;5048008;28;20036;-22
2021/05/11 04:42:08;;;;;;;8.45;5.22;;;;;;;10.16;59.55;100533.47;5047898;28;20036;-22
2021/05/11 04:44:35;;;;;;;7.68;5.30;;;;;;;10.06;60.44;100529.34;5047714;28;20386;-23
2021/05/11 04:47:07;;;;;;;8.80;5.10;;;;;;;10.61;58.93;100531.00;5047672;28;20029;-22
2021/05/11 04:49:33;;;;;;;8.20;4.97;;;;;;;10.37;59.84;100535.13;5046520;28;20053;-21
2021/05/11 04:51:58;;;;;;;8.85;5.07;;;;;;;10.30;60.20;100495.13;5046764;28;20063;-21
2021/05/11 04:54:24;;;;;;;13.65;5.53;;;;;;;10.91;59.56;100530.50;5047527;28;20346;-22
2021/05/11 04:56:50;;;;;;;8.48;4.78;;;;;;;11.29;58.24;100530.59;5047605;28;20029;-22
2021/05/11 04:59:15;;;;;;;8.95;4.55;;;;;;;10.71;60.42;100526.06;5047527;28;20025;-22
2021/05/11 05:01:43;;;;;;;6.97;4.63;;;;;;;10.51;61.28;100531.41;5047481;28;20090;-22
2021/05/11 05:04:10;;;;;;;6.90;4.45;;;;;;;10.58;60.95;100526.06;5047280;28;20025;-22
2021/05/11 05:06:36;;;;;;;7.25;4.75;;;;;;;10.85;60.45;100527.66;5047403;28;20044;-23
2021/05/11 05:09:01;;;;;;;6.78;4.15;;;;;;;10.92;58.36;100532.16;5047545;28;20025;-21
2021/05/11 05:11:27;;;;;;;10.02;4.93;;;;;;;11.49;58.20;100546.53;5047765;28;20142;-22
2021/05/11 05:13:52;;;;;;;7.18;4.68;;;;;;;11.12;58.84;100532.09;5047134;28;20094;-22
2021/05/11 05:16:18;;;;;;;8.32;4.38;;;;;;;11.05;59.60;100537.44;5046943;28;20052;-22
2021/05/11 05:18:43;;;;;;;8.50;4.90;;;;;;;11.06;59.52;100529.25;5047267;28;20024;-21
2021/05/11 05:21:09;;;;;;;6.68;4.45;;;;;;;11.73;57.56;100538.78;5047234;28;20033;-21
2021/05/11 05:23:39;;;;;;;8.55;4.68;;;;;;;11.94;57.42;100525.13;5047209;28;20060;-24
2021/05/11 05:26:09;;;;;;;7.43;3.95;;;;;;;12.38;55.22;100542.06;5047118;28;20560;-25
2021/05/11 05:28:38;;;;;;;6.43;4.00;;;;;;;12.23;55.67;100539.69;5046808;28;20115;-24
2021/05/11 05:31:03;;;;;;;6.95;4.13;;;;;;;12.09;56.17;100530.13;5047059;28;20048;-24
2021/05/11 05:33:30;;;;;;;6.28;4.05;;;;;;;11.89;57.55;100535.66;5046867;28;20029;-24
2021/05/11 05:35:55;;;;;;;9.73;4.40;;;;;;;11.96;57.16;100539.09;5047161;28;20041;-24
2021/05/11 05:38:21;;;;;;;6.15;3.65;;;;;;;11.79;57.55;100530.75;5046676;28;20024;-24
2021/05/11 05:40:54;;;;;;;9.20;4.18;;;;;;;12.15;57.01;100536.47;5047326;28;20067;-24
2021/05/11 05:43:19;;;;;;;6.60;4.13;;;;;;;12.94;54.79;100536.78;5046874;28;20025;-24
2021/05/11 05:45:45;;;;;;;5.40;3.78;;;;;;;12.68;55.27;100541.38;5046888;28;20082;-24
2021/05/11 05:48:10;;;;;;;5.15;3.70;;;;;;;13.07;54.51;100533.94;5046965;28;20033;-22
2021/05/11 05:50:36;;;;;;;6.57;3.80;;;;;;;12.52;55.76;100547.28;5047007;28;20509;-24
2021/05/11 05:53:03;;;;;;;6.82;3.70;;;;;;;12.42;56.29;100543.25;5047123;28;20029;-22
2021/05/11 05:55:29;;;;;;;6.18;4.07;;;;;;;12.96;55.44;100548.09;5046816;28;20067;-22
2021/05/11 05:57:56;;;;;;;6.68;3.80;;;;;;;12.86;55.13;100544.06;5046768;28;20033;-22
2021/05/11 06:00:22;;;;;;;5.13;3.10;;;;;;;13.16;53.04;100516.56;5045236;28;20037;-22
2021/05/11 06:02:51;;;;;;;5.32;3.67;;;;;;;13.12;53.01;100535.94;5047085;28;20536;-22
2021/05/11 06:05:17;;;;;;;5.55;3.70;;;;;;;12.82;55.60;100539.38;5046968;28;20079;-22
2021/05/11 06:07:42;;;;;;;8.52;3.90;;;;;;;13.19;54.91;100537.50;5047154;28;20409;-21
2021/05/11 06:10:09;;;;;;;9.18;3.78;;;;;;;13.54;53.56;100536.88;5046840;28;20041;-22
2021/05/11 06:13:25;;;;;;;6.72;3.20;;;;;;;13.72;52.78;100519.94;5046481;28;20404;-22
2021/05/11 06:18:12;;;;;;;5.70;3.53;;;;;;;13.73;52.48;100526.13;5046676;28;20109;-21
2021/05/11 06:20:38;;;;;;;5.32;3.42;;;;;;;13.93;53.45;100521.28;5046653;28;20033;-21
2021/05/11 06:23:03;;;;;;;5.22;3.28;;;;;;;13.81;52.51;100501.66;5046470;28;20078;-22
2021/05/11 06:25:29;;;;;;;6.38;3.08;;;;;;;13.80;52.66;100516.94;5046538;28;20029;-21
2021/05/11 06:27:55;;;;;;;6.40;3.40;;;;;;;14.06;51.75;100494.28;5047118;28;20496;-22
2021/05/11 06:30:21;;;;;;;8.57;4.18;;;;;;;14.14;51.11;100516.41;5046857;28;20037;-21
2021/05/11 06:32:46;;;;;;;7.80;3.95;;;;;;;14.76;50.83;100519.50;5046818;28;20021;-21
2021/05/11 06:35:12;;;;;;;7.22;3.65;;;;;;;14.96;51.41;100524.50;5047144;28;20037;-22
2021/05/11 06:37:37;;;;;;;7.90;3.47;;;;;;;15.22;50.17;100523.16;5046577;28;20078;-22
2021/05/11 06:40:03;;;;;;;5.60;3.15;;;;;;;15.12;49.71;100520.25;5049928;28;20025;-22
2021/05/11 06:42:30;;;;;;;6.65;3.28;;;;;;;15.42;49.92;100521.91;5049913;28;20104;-22
2021/05/11 06:55:04;;;;;;;5.55;3.00;;;;;;;13.98;52.21;100502.66;5050103;28;20122;-22
2021/05/11 06:57:30;;;;;;;5.72;3.13;;;;;;;13.93;52.91;100504.38;5049562;28;20106;-22
2021/05/11 06:59:56;;;;;;;7.03;3.42;;;;;;;14.34;51.41;100503.50;5049722;28;20032;-21
2021/05/11 07:02:21;;;;;;;6.65;3.40;;;;;;;14.35;52.06;100472.94;5049554;28;20103;-22
2021/05/11 07:04:48;;;;;;;4.97;2.97;;;;;;;14.66;51.96;100492.44;5049606;28;20063;-22
2021/05/11 07:07:14;;;;;;;7.13;2.88;;;;;;;15.04;50.04;100493.78;5049503;28;20497;-21
2021/05/11 07:14:56;;;;;;;7.30;3.50;;;;;;;15.46;48.12;100488.94;5049555;28;20035;-22
2021/05/11 07:17:21;;;;;;;5.55;2.90;;;;;;;15.37;47.89;100493.06;5049338;28;20037;-22
2021/05/11 07:19:47;;;;;;;5.40;2.92;;;;;;;15.62;47.71;100476.59;5049147;28;20481;-21
2021/05/11 07:22:12;;;;;;;5.25;3.03;;;;;;;16.02;49.29;100491.81;5049072;28;20040;-21
2021/05/11 07:24:38;;;;;;;5.18;3.13;;;;;;;15.48;48.63;100486.81;5049364;28;20079;-21
2021/05/11 07:32:11;;;;;;;6.55;3.15;;;;;;;16.39;46.78;100477.84;5048995;28;20121;-20
2021/05/11 07:34:41;;;;;;;8.80;2.50;;;;;;;16.70;41.52;100474.75;5049281;28;20037;-21
2021/05/11 07:37:06;;;;;;;2.67;1.80;;;;;;;16.94;41.66;100459.19;5049163;28;20039;-21
2021/05/11 07:39:32;;;;;;;3.95;2.35;;;;;;;16.75;42.27;100464.84;5048955;28;20024;-21
2021/05/11 07:41:57;;;;;;;3.85;2.55;;;;;;;16.97;42.24;100466.78;5049016;28;20037;-22
2021/05/11 07:44:23;;;;;;;7.10;2.13;;;;;;;16.58;44.35;100464.09;5048748;28;20025;-21
2021/05/11 07:47:03;;;;;;;3.95;2.30;;;;;;;16.59;43.92;100465.72;5048810;28;20025;-22
2021/05/11 07:52:19;;;;;;;4.05;2.20;;;;;;;16.25;42.20;100445.06;5049003;28;20095;-22
2021/05/11 08:10:53;;;;;;;4.13;1.80;;;;;;;17.81;36.99;100454.66;5048826;28;20785;-21
2021/05/11 08:16:14;;;;;;;3.75;1.67;;;;;;;17.73;34.01;100452.44;5048485;28;20858;-21
2021/05/11 08:29:17;;;;;;;4.43;2.00;;;;;;;19.03;34.19;100432.97;5048168;28;20090;-22
2021/05/11 08:31:43;;;;;;;4.15;1.70;;;;;;;18.96;35.50;100442.41;5047913;28;20029;-22
2021/05/11 08:34:09;;;;;;;2.88;1.50;;;;;;;19.09;35.95;100433.81;5047943;28;20041;-22
2021/05/11 08:36:34;;;;;;;3.20;1.40;;;;;;;19.33;36.12;100419.78;5047564;28;20078;-22
2021/05/11 08:39:00;;;;;;;4.05;1.50;;;;;;;18.87;37.35;100413.19;5048191;28;20037;-22
2021/05/11 08:41:25;;;;;;;2.78;1.60;;;;;;;19.26;37.60;100426.28;5047949;28;20489;-22
2021/05/11 08:43:51;;;;;;;3.30;1.60;;;;;;;19.14;36.46;100417.59;5047911;28;20119;-22
2021/05/11 08:46:16;;;;;;;3.78;1.45;;;;;;;19.33;36.82;100415.22;5047899;28;20029;-22
2021/05/11 08:48:42;;;;;;;3.45;1.70;;;;;;;19.06;36.49;100418.13;5047650;28;20040;-22
2021/05/11 09:29:24;;;;;;;3.40;1.70;;;;;;;20.47;36.30;100408.59;5047602;28;20101;-21
2021/05/11 10:41:31;;;;;;;2.90;1.10;;;;;;;24.49;28.91;100300.13;5049270;28;20032;-21
2021/05/11 10:49:30;;;;;;;3.20;1.17;;;;;;;24.01;30.15;100296.75;5050112;28;20036;-22
2021/05/11 10:52:33;;;;;;;5.55;1.60;;;;;;;24.10;29.55;100293.34;5049923;28;20480;-21
2021/05/11 10:57:50;;;;;;;2.92;1.20;;;;;;;24.26;29.35;100278.28;5049615;28;20044;-21
2021/05/11 11:03:18;;;;;;;3.70;1.30;;;;;;;25.06;29.39;100259.53;5050029;28;20067;-21
2021/05/11 11:05:45;;;;;;;3.28;1.83;;;;;;;25.32;27.05;100278.03;5049575;28;20378;-21
2021/05/11 11:08:43;;;;;;;2.65;1.20;;;;;;;25.12;27.11;100269.22;5048168;28;20508;-19
2021/05/11 11:11:21;;;;;;;2.60;0.77;;;;;;;25.06;25.94;100265.00;5048036;28;20041;-21
2021/05/11 11:13:48;;;;;;;2.53;1.00;;;;;;;25.72;26.48;100276.13;5049792;28;20065;-21
2021/05/11 11:16:14;;;;;;;3.55;1.38;;;;;;;25.92;25.66;100261.13;5049589;28;20071;-21
2021/05/11 11:18:39;;;;;;;2.10;1.10;;;;;;;25.63;26.32;100246.06;5049450;28;20100;-21
2021/05/11 11:23:56;;;;;;;2.22;1.10;;;;;;;26.10;25.30;100252.97;5049532;28;20068;-21
2021/05/11 11:26:32;;;;;;;2.45;1.25;;;;;;;25.48;26.20;100251.94;5049221;28;20494;-21
2021/05/11 11:29:04;;;;;;;1.75;1.00;;;;;;;25.20;27.41;100254.81;5049497;28;20021;-21
2021/05/11 11:31:33;;;;;;;2.63;0.93;;;;;;;26.06;26.68;100256.34;5049193;28;20021;-21
2021/05/11 11:34:21;;;;;;;16.65;10.32;;;;;;;26.32;24.95;100244.66;5047708;28;20029;-21
2021/05/11 11:36:48;;;;;;;5.95;1.15;;;;;;;25.88;27.74;100243.72;5049389;28;20056;-21
2021/05/11 11:39:22;;;;;;;2.90;1.20;;;;;;;26.11;28.28;100246.38;5049213;28;20029;-21
2021/05/11 11:41:48;;;;;;;2.13;1.15;;;;;;;26.93;26.07;100241.91;5049050;28;20091;-21
2021/05/11 11:44:15;;;;;;;3.70;1.20;;;;;;;26.49;26.93;100243.03;5048647;28;20160;-21
2021/05/11 11:46:40;;;;;;;2.30;1.20;;;;;;;25.73;27.15;100235.97;5047740;28;20553;-21
2021/05/11 11:49:10;;;;;;;1.63;1.10;;;;;;;26.31;26.00;100237.56;5049197;28;20115;-21
2021/05/11 11:51:37;;;;;;;3.08;1.33;;;;;;;26.97;25.27;100236.56;5049112;28;20044;-21
2021/05/11 11:54:10;;;;;;;3.22;1.30;;;;;;;27.94;23.87;100238.69;5048864;28;20033;-21
2021/05/11 11:59:19;;;;;;;23.40;8.05;;;;;;;27.16;24.91;100215.13;5048930;28;20039;-21
2021/05/11 12:02:02;;;;;;;6.90;2.05;;;;;;;26.58;24.59;100208.31;5048788;28;20032;-21
2021/05/11 12:04:27;;;;;;;4.82;1.08;;;;;;;27.39;24.07;100212.19;5048431;28;20112;-21
2021/05/11 12:06:54;;;;;;;1.73;0.73;;;;;;;27.56;23.31;100198.38;5048604;28;20421;-21
2021/05/11 12:09:20;;;;;;;2.95;1.02;;;;;;;27.70;24.13;100194.63;5048268;28;20040;-21
2021/05/11 12:11:46;;;;;;;1.50;0.95;;;;;;;27.37;23.54;100198.00;5048616;28;20068;-21
2021/05/11 12:14:15;;;;;;;2.08;1.10;;;;;;;27.27;23.96;100187.44;5030588;28;20024;-21
2021/05/11 12:16:42;;;;;;;2.88;0.98;;;;;;;27.01;22.84;100180.88;5048414;28;20032;-21
2021/05/11 12:19:33;;;;;;;1.95;1.23;;;;;;;28.04;22.71;100180.72;5048342;28;20017;-21
2021/05/11 12:22:04;;;;;;;2.65;1.30;;;;;;;28.21;24.28;100166.06;5048288;28;20041;-21
2021/05/11 12:24:36;;;;;;;3.38;0.95;;;;;;;28.30;21.68;100159.72;5048471;28;20029;-21
2021/05/11 12:27:22;;;;;;;2.80;1.42;;;;;;;28.72;21.52;100157.72;5048418;28;20025;-21
2021/05/11 12:30:07;;;;;;;3.67;0.82;;;;;;;28.39;20.49;100169.47;5048219;28;20028;-20
2021/05/11 12:32:34;;;;;;;1.92;0.93;;;;;;;28.25;22.47;100155.25;5047822;28;20378;-21
2021/05/11 12:35:10;;;;;;;4.20;1.00;;;;;;;28.91;21.67;100156.41;5048269;28;20029;-21
2021/05/11 12:37:53;;;;;;;1.33;0.90;;;;;;;28.78;21.22;100153.63;5047601;28;20036;-21
2021/05/11 12:42:47;;;;;;;2.13;1.08;;;;;;;28.97;20.36;100149.53;5048153;28;20044;-21
2021/05/11 12:45:16;;;;;;;1.50;0.80;;;;;;;29.38;21.66;100151.34;5048190;28;20029;-21
2021/05/11 12:47:50;;;;;;;2.83;0.75;;;;;;;29.05;20.74;100133.00;5048021;28;20075;-21
2021/05/11 12:50:22;;;;;;;1.63;0.80;;;;;;;28.99;21.03;100134.34;5047431;28;20049;-21
2021/05/11 12:52:49;;;;;;;1.30;0.82;;;;;;;28.26;20.81;100137.66;5047615;28;20037;-21
2021/05/11 12:55:33;;;;;;;;;;;;;;;27.89;22.00;100128.44;5048454;28;20037;-21
2021/05/11 12:58:20;;;;;;;2.67;0.90;;;;;;;28.02;21.40;100133.66;5047555;28;19942;-21
2021/05/11 13:00:47;;;;;;;2.67;0.77;;;;;;;28.31;20.62;100134.72;5047455;28;20037;-21
2021/05/11 13:03:36;;;;;;;2.35;0.85;;;;;;;27.17;19.03;100114.63;5047486;28;20032;-21
2021/05/11 13:22:19;;;;;;;4.95;0.88;;;;;;;30.28;16.48;100118.28;5047389;28;20392;-21
2021/05/11 13:27:37;;;;;;;4.25;1.90;;;;;;;29.80;18.75;100098.06;5047237;28;20044;-21
2021/05/11 13:34:57;;;;;;;2.20;1.00;;;;;;;28.62;18.74;100097.78;5047381;28;20044;-21
2021/05/11 13:37:27;;;;;;;1.60;0.75;;;;;;;28.95;18.52;100085.94;5047050;28;20041;-21
2021/05/11 13:39:53;;;;;;;1.73;0.82;;;;;;;29.41;19.13;100061.94;5047075;28;20074;-21
2021/05/11 13:42:18;;;;;;;3.50;1.48;;;;;;;30.00;17.96;100083.31;5046993;28;20116;-21
2021/05/11 13:44:44;;;;;;;9.98;1.77;;;;;;;30.35;19.11;100073.69;5047055;28;20075;-21
2021/05/11 13:47:09;;;;;;;3.20;1.30;;;;;;;29.36;19.23;100064.91;5047156;28;20025;-21
2021/05/11 13:49:35;;;;;;;1.77;0.90;;;;;;;28.77;18.97;100055.97;5050397;28;20049;-21
2021/05/11 13:52:00;;;;;;;4.40;1.10;;;;;;;29.50;19.56;100062.59;5051410;28;20401;-21
2021/05/11 13:54:26;;;;;;;1.85;0.90;;;;;;;29.75;18.45;100059.81;5049562;28;20128;-21
2021/05/11 14:04:33;;;;;;;4.50;1.52;;;;;;;29.16;19.09;100061.97;5050789;28;20116;-21
2021/05/11 14:06:59;;;;;;;4.20;0.98;;;;;;;29.62;18.77;100054.31;5050652;28;20040;-21
2021/05/11 14:09:25;;;;;;;5.22;1.10;;;;;;;30.30;17.56;100043.66;5050837;28;20052;-21
2021/05/11 14:11:50;;;;;;;5.72;1.38;;;;;;;29.88;18.80;100044.88;5050694;28;20420;-21
2021/05/11 14:14:16;;;;;;;1.67;1.00;;;;;;;30.10;17.49;100050.97;5050446;28;20063;-21
2021/05/11 14:16:42;;;;;;;3.33;1.08;;;;;;;29.98;17.79;100038.88;5050917;28;20037;-21
2021/05/11 14:19:08;;;;;;;2.83;0.77;;;;;;;29.15;19.00;100045.81;5050735;28;20033;-21
2021/05/11 14:21:33;;;;;;;7.30;1.00;;;;;;;29.54;20.22;100036.00;5050772;28;20029;-21
2021/05/11 14:23:59;;;;;;;1.10;0.70;;;;;;;29.22;19.31;100032.34;5050470;28;20064;-21
2021/05/11 14:26:25;;;;;;;4.00;1.13;;;;;;;29.41;19.46;100015.22;5050213;28;20060;-21
2021/05/11 14:28:51;;;;;;;2.72;1.05;;;;;;;29.68;19.46;100029.34;5050333;28;20029;-21
2021/05/11 14:31:16;;;;;;;4.00;1.10;;;;;;;30.32;17.53;100025.69;5050595;28;20029;-21
2021/05/11 14:33:42;;;;;;;7.03;1.30;;;;;;;30.94;18.16;100028.81;5050695;28;20067;-21
2021/05/11 14:36:07;;;;;;;1.80;1.10;;;;;;;30.58;17.92;100024.34;5050401;28;20067;-21
2021/05/11 14:38:34;;;;;;;2.70;0.90;;;;;;;29.88;18.85;99995.41;5050238;28;20916;-22
2021/05/11 14:41:03;;;;;;;3.72;1.08;;;;;;;29.45;19.36;100005.16;5050277;28;20029;-21
2021/05/11 14:43:32;;;;;;;6.35;1.30;;;;;;;28.02;20.39;99998.56;5050067;28;20499;-21
2021/05/11 14:46:04;;;;;;;7.28;1.25;;;;;;;27.79;21.27;100003.59;5050462;28;20036;-21
2021/05/11 14:48:30;;;;;;;2.60;1.10;;;;;;;27.17;22.45;100000.47;5049891;28;20108;-21
2021/05/11 14:50:56;;;;;;;2.33;1.02;;;;;;;26.55;22.55;100007.34;5049844;28;20049;-21
2021/05/11 14:53:22;;;;;;;4.35;1.15;;;;;;;25.73;23.99;99988.22;5049938;28;20120;-21
2021/05/11 14:55:48;;;;;;;5.63;1.20;;;;;;;26.01;24.33;99994.16;5050283;28;20117;-21
2021/05/11 14:58:13;;;;;;;3.35;0.90;;;;;;;25.41;24.12;99982.09;5049881;28;20044;-20
2021/05/11 15:00:39;;;;;;;2.90;0.90;;;;;;;25.30;24.09;99990.94;5049700;28;20072;-21
2021/05/11 15:03:05;;;;;;;1.67;1.02;;;;;;;24.54;24.80;99975.63;5049997;28;20083;-21
2021/05/11 15:05:31;;;;;;;4.07;0.98;;;;;;;24.73;25.30;99968.00;5049903;28;20144;-22
2021/05/11 15:07:56;;;;;;;5.57;1.05;;;;;;;24.63;25.49;99969.09;5049729;28;20437;-21
2021/05/11 15:10:22;;;;;;;3.90;1.00;;;;;;;24.65;25.89;99968.78;5049440;28;20405;-21
2021/05/11 15:12:49;;;;;;;2.47;1.25;;;;;;;24.36;25.96;99931.91;5049357;28;20497;-21
2021/05/11 15:15:20;;;;;;;1.40;0.80;;;;;;;24.53;25.21;99949.50;5049612;28;20493;-22
2021/05/11 15:20:13;;;;;;;1.33;0.88;;;;;;;23.84;25.89;99942.53;5049443;28;20025;-21
2021/05/11 15:22:38;;;;;;;3.47;0.80;;;;;;;24.09;26.19;99956.63;5049500;28;20397;-21
2021/05/11 15:25:05;;;;;;;2.58;1.08;;;;;;;24.36;25.82;99951.00;5049236;28;20451;-22
2021/05/11 15:27:30;;;;;;;3.78;1.30;;;;;;;24.42;25.83;99957.91;5049476;28;20124;-21
2021/05/11 15:30:00;;;;;;;1.70;0.90;;;;;;;24.26;25.12;99943.09;5049221;28;20412;-21
2021/05/11 15:32:39;;;;;;;3.42;0.85;;;;;;;24.54;26.21;99951.09;5031621;28;20025;-21
2021/05/11 15:35:12;;;;;;;1.52;1.02;;;;;;;23.96;25.63;99944.69;5049253;28;20048;-21
2021/05/11 15:37:38;;;;;;;3.17;1.00;;;;;;;24.12;26.30;99945.91;5048051;28;20024;-21
2021/05/11 15:40:05;;;;;;;1.58;1.15;;;;;;;24.09;26.41;99959.34;5049067;28;20039;-21
2021/05/11 15:42:31;;;;;;;5.30;1.40;;;;;;;24.28;26.14;99951.75;5049198;28;20576;-21
2021/05/11 15:44:56;;;;;;;3.17;1.17;;;;;;;24.09;25.50;99949.28;5048955;28;20131;-21
2021/05/11 15:47:22;;;;;;;4.13;1.17;;;;;;;23.96;26.41;99959.09;5049391;28;20032;-21
2021/05/11 15:49:47;;;;;;;1.92;1.10;;;;;;;23.95;25.77;99946.63;5048856;28;20044;-21
2021/05/11 15:52:13;;;;;;;1.10;1.00;;;;;;;24.04;26.67;99952.91;5048583;28;20032;-21
2021/05/11 15:54:38;;;;;;;2.17;1.05;;;;;;;23.71;27.66;99946.91;5048894;28;20029;-21
2021/05/11 15:57:04;;;;;;;1.48;1.17;;;;;;;23.53;27.93;99932.34;5048884;28;20033;-22
2021/05/11 15:59:30;;;;;;;3.90;1.00;;;;;;;23.32;27.51;99936.69;5048762;28;20036;-21
2021/05/11 16:01:55;;;;;;;2.55;1.00;;;;;;;23.18;27.59;99951.13;5048675;28;20082;-21
2021/05/11 16:04:21;;;;;;;6.80;1.10;;;;;;;23.49;26.77;99941.47;5047382;28;20791;-21
2021/05/11 16:06:46;;;;;;;3.13;1.17;;;;;;;23.47;27.22;99941.75;5048610;28;20091;-21